createdAt,value
2023-02-15T00:00:46.012Z,4.38
2023-02-15T00:03:17.800Z,4.60
2023-02-15T00:05:49.323Z,5.30
2023-02-15T00:08:20.810Z,5.50
2023-02-15T00:10:52.333Z,3.80
2023-02-15T00:13:24.018Z,2.67
2023-02-15T00:15:55.523Z,5.25
2023-02-15T00:18:27.344Z,4.03
2023-02-15T00:20:58.889Z,3.97
2023-02-15T00:23:30.714Z,3.38
2023-02-15T00:26:02.416Z,3.60
2023-02-15T00:28:34.456Z,3.83
2023-02-15T00:31:06.149Z,5.13
2023-02-15T00:33:38.069Z,5.00
2023-02-15T00:36:09.588Z,3.80
2023-02-15T00:38:41.394Z,4.03
2023-02-15T00:41:13.232Z,4.47
2023-02-15T00:43:44.717Z,3.77
2023-02-15T00:46:16.222Z,3.40
2023-02-15T00:48:47.716Z,3.50
2023-02-15T00:51:19.295Z,2.92
2023-02-15T00:53:50.780Z,4.05
2023-02-15T00:56:22.577Z,3.92
2023-02-15T00:58:54.063Z,4.63
2023-02-15T01:01:27.192Z,4.78
2023-02-15T01:03:58.791Z,3.50
2023-02-15T01:06:30.748Z,3.97
2023-02-15T01:09:02.278Z,3.73
2023-02-15T01:11:34.258Z,4.85
2023-02-15T01:14:06.437Z,4.87
2023-02-15T01:16:38.115Z,3.15
2023-02-15T01:19:09.631Z,2.50
2023-02-15T01:21:42.018Z,5.47
2023-02-15T01:24:13.805Z,5.35
2023-02-15T01:26:45.558Z,4.97
2023-02-15T01:29:17.111Z,4.17
2023-02-15T01:31:49.064Z,4.47
2023-02-15T01:34:20.642Z,4.85
2023-02-15T01:36:52.450Z,4.70
2023-02-15T01:39:23.954Z,4.30
2023-02-15T01:41:55.877Z,4.93
2023-02-15T01:44:27.555Z,4.90
2023-02-15T01:46:59.424Z,5.07
2023-02-15T01:49:30.930Z,4.67
2023-02-15T01:52:02.855Z,4.40
2023-02-15T01:54:34.944Z,2.60
2023-02-15T01:57:06.664Z,3.13
2023-02-15T01:59:38.158Z,4.05
2023-02-15T02:02:10.273Z,4.68
2023-02-15T02:04:41.824Z,5.00
2023-02-15T02:07:13.691Z,4.18
2023-02-15T02:09:45.230Z,5.63
2023-02-15T02:12:16.837Z,4.15
2023-02-15T02:14:48.354Z,5.07
2023-02-15T02:17:19.909Z,5.72
2023-02-15T02:19:51.385Z,6.75
2023-02-15T02:22:23.038Z,4.45
2023-02-15T02:24:54.531Z,4.75
2023-02-15T02:27:26.332Z,3.75
2023-02-15T02:29:57.935Z,4.80
2023-02-15T02:32:29.789Z,6.03
2023-02-15T02:35:01.295Z,5.97
2023-02-15T02:37:33.076Z,4.00
2023-02-15T02:40:05.183Z,3.40
2023-02-15T02:42:37.023Z,5.88
2023-02-15T02:45:08.512Z,4.78
2023-02-15T02:47:40.026Z,7.28
2023-02-15T02:50:11.523Z,6.25
2023-02-15T02:52:43.395Z,5.78
2023-02-15T02:55:14.937Z,3.93
2023-02-15T02:57:46.698Z,4.78
2023-02-15T03:00:18.214Z,6.23
2023-02-15T03:02:50.340Z,7.07
2023-02-15T03:05:21.943Z,4.78
2023-02-15T03:07:53.485Z,4.47
2023-02-15T03:10:25.061Z,5.55
2023-02-15T03:12:56.897Z,6.60
2023-02-15T03:15:48.405Z,4.90
2023-02-15T03:18:19.992Z,4.55
2023-02-15T03:20:51.502Z,5.50
2023-02-15T03:23:23.061Z,5.93
2023-02-15T03:25:54.564Z,4.32
2023-02-15T03:28:26.406Z,4.75
2023-02-15T03:30:58.085Z,5.67
2023-02-15T03:33:30.132Z,6.63
2023-02-15T03:36:01.919Z,4.82
2023-02-15T03:38:33.850Z,5.20
2023-02-15T03:41:11.586Z,4.47
2023-02-15T03:43:43.366Z,4.15
2023-02-15T03:46:14.878Z,6.67
2023-02-15T03:48:46.759Z,6.18
2023-02-15T03:51:37.331Z,5.87
2023-02-15T03:54:09.542Z,6.20
2023-02-15T03:56:41.109Z,6.35
2023-02-15T03:59:31.885Z,4.80
2023-02-15T04:02:03.760Z,5.15
2023-02-15T04:04:35.272Z,6.10
2023-02-15T04:07:07.154Z,4.95
2023-02-15T04:09:57.324Z,4.35
2023-02-15T04:12:29.011Z,3.60
2023-02-15T04:15:19.074Z,5.88
2023-02-15T04:17:50.827Z,4.75
2023-02-15T04:20:41.109Z,4.43
2023-02-15T04:23:31.498Z,5.90
2023-02-15T04:26:03.279Z,7.00
2023-02-15T04:28:35.213Z,2.90
2023-02-15T04:31:06.729Z,4.43
2023-02-15T04:33:38.693Z,5.65
2023-02-15T04:36:10.187Z,3.60
2023-02-15T04:38:41.984Z,5.60
2023-02-15T04:41:14.035Z,5.13
2023-02-15T04:43:45.786Z,5.68
2023-02-15T04:46:17.319Z,5.20
2023-02-15T04:48:49.120Z,5.65
2023-02-15T04:51:20.626Z,6.47
2023-02-15T04:53:53.814Z,4.03
2023-02-15T04:56:25.354Z,5.13
2023-02-15T04:58:57.238Z,5.93
2023-02-15T05:01:28.890Z,5.90
2023-02-15T05:04:00.776Z,6.17
2023-02-15T05:06:32.297Z,4.32
2023-02-15T05:09:04.108Z,5.18
2023-02-15T05:11:35.622Z,3.87
2023-02-15T05:14:07.557Z,3.67
2023-02-15T05:16:39.067Z,4.68
2023-02-15T05:19:11.897Z,5.57
2023-02-15T05:21:43.419Z,5.78
2023-02-15T05:24:33.860Z,4.72
2023-02-15T05:27:24.041Z,4.05
2023-02-15T05:29:55.769Z,4.38
2023-02-15T05:32:27.510Z,4.80
2023-02-15T05:34:59.454Z,5.13
2023-02-15T05:37:30.953Z,5.90
2023-02-15T05:40:02.736Z,4.25
2023-02-15T05:42:34.249Z,5.40
2023-02-15T05:45:06.851Z,5.15
2023-02-15T05:50:10.209Z,5.32
2023-02-15T05:52:41.704Z,3.70
2023-02-15T05:55:13.764Z,4.72
2023-02-15T05:57:45.251Z,5.75
2023-02-15T06:00:17.036Z,3.75
2023-02-15T06:02:48.574Z,4.87
2023-02-15T06:05:20.293Z,3.75
2023-02-15T06:07:51.795Z,6.43
2023-02-15T06:10:23.670Z,4.20
2023-02-15T06:12:55.172Z,2.95
2023-02-15T06:15:26.892Z,5.93
2023-02-15T06:17:58.431Z,3.80
2023-02-15T06:20:29.941Z,5.00
2023-02-15T06:23:01.725Z,3.90
2023-02-15T06:25:35.245Z,3.23
2023-02-15T06:28:07.899Z,5.18
2023-02-15T06:30:39.420Z,4.53
2023-02-15T06:33:10.953Z,5.47
2023-02-15T06:35:42.570Z,3.38
2023-02-15T06:38:14.077Z,3.90
2023-02-15T06:40:45.557Z,5.10
2023-02-15T06:43:17.063Z,4.30
2023-02-15T06:45:48.589Z,4.90
2023-02-15T06:48:20.198Z,3.53
2023-02-15T06:50:51.737Z,3.40
2023-02-15T06:53:23.774Z,4.32
2023-02-15T06:55:55.384Z,2.38
2023-02-15T06:58:27.185Z,3.55
2023-02-15T07:00:58.671Z,4.60
2023-02-15T07:03:30.543Z,4.47
2023-02-15T07:06:02.410Z,2.60
2023-02-15T07:08:34.532Z,4.00
2023-02-15T07:11:24.805Z,3.38
2023-02-15T07:13:56.799Z,4.22
2023-02-15T07:16:29.025Z,2.80
2023-02-15T07:19:00.918Z,4.10
2023-02-15T07:21:32.418Z,3.70
2023-02-15T07:24:04.307Z,2.83
2023-02-15T07:26:35.828Z,4.45
2023-02-15T07:29:07.778Z,4.00
2023-02-15T07:31:39.294Z,4.18
2023-02-15T07:34:10.788Z,3.58
2023-02-15T07:36:58.216Z,3.90
2023-02-15T07:39:29.731Z,4.22
2023-02-15T07:42:01.244Z,4.20
2023-02-15T07:44:33.142Z,3.88
2023-02-15T07:47:04.693Z,4.63
2023-02-15T07:49:36.548Z,4.85
2023-02-15T07:52:08.135Z,3.60
2023-02-15T07:54:40.088Z,4.22
2023-02-15T07:57:11.622Z,4.75
2023-02-15T07:59:43.456Z,4.53
2023-02-15T08:02:16.910Z,4.50
2023-02-15T08:04:49.998Z,4.10
2023-02-15T08:07:21.554Z,4.50
2023-02-15T08:09:54.654Z,3.13
2023-02-15T08:12:26.199Z,3.55
2023-02-15T08:14:57.703Z,3.42
2023-02-15T08:17:29.213Z,4.20
2023-02-15T08:20:00.736Z,4.32
2023-02-15T08:22:32.231Z,3.92
2023-02-15T08:25:03.961Z,3.80
2023-02-15T08:27:35.433Z,5.57
2023-02-15T08:30:07.286Z,3.88
2023-02-15T08:32:38.858Z,4.37
2023-02-15T08:35:11.046Z,3.88
2023-02-15T08:37:42.521Z,3.85
2023-02-15T08:40:14.530Z,5.15
2023-02-15T08:42:46.003Z,4.60
2023-02-15T08:45:17.513Z,4.25
2023-02-15T08:47:49.008Z,4.40
2023-02-15T08:50:20.511Z,4.70
2023-02-15T08:52:52.019Z,4.75
2023-02-15T08:55:23.950Z,4.43
2023-02-15T08:57:56.510Z,5.60
2023-02-15T09:00:29.823Z,6.38
2023-02-15T09:03:01.366Z,6.30
2023-02-15T09:05:33.320Z,5.60
2023-02-15T09:08:04.962Z,3.70
2023-02-15T09:10:36.940Z,4.40
2023-02-15T09:13:08.705Z,5.13
2023-02-15T09:15:40.548Z,5.63
2023-02-15T09:18:13.180Z,3.83
2023-02-15T09:20:45.722Z,5.53
2023-02-15T09:23:26.819Z,5.15
2023-02-15T09:25:58.726Z,4.63
2023-02-15T09:28:30.598Z,5.20
2023-02-15T09:31:02.321Z,6.37
2023-02-15T09:33:33.965Z,4.20
2023-02-15T09:36:05.468Z,5.28
2023-02-15T09:38:37.206Z,4.95
2023-02-15T09:41:08.766Z,4.53
2023-02-15T09:43:40.564Z,4.93
2023-02-15T09:46:12.304Z,5.43
2023-02-15T09:48:44.250Z,5.90
2023-02-15T09:51:15.713Z,5.40
2023-02-15T09:53:47.636Z,5.80
2023-02-15T09:56:21.013Z,5.07
2023-02-15T09:58:53.962Z,5.65
2023-02-15T10:01:25.861Z,5.88
2023-02-15T10:03:57.831Z,5.37
2023-02-15T10:06:29.355Z,5.47
2023-02-15T10:09:01.216Z,6.00
2023-02-15T10:11:41.763Z,5.60
2023-02-15T10:14:13.803Z,5.00
2023-02-15T10:16:45.453Z,5.57
2023-02-15T10:19:16.952Z,4.85
2023-02-15T10:21:48.474Z,4.88
2023-02-15T10:24:19.963Z,6.45
2023-02-15T10:26:51.444Z,5.82
2023-02-15T10:29:23.003Z,4.55
2023-02-15T10:31:54.602Z,6.47
2023-02-15T10:34:26.167Z,6.15
2023-02-15T10:36:57.651Z,5.85
2023-02-15T10:39:29.759Z,5.78
2023-02-15T10:42:01.267Z,5.63
2023-02-15T10:44:32.979Z,5.63
2023-02-15T10:47:04.495Z,6.47
2023-02-15T10:49:36.284Z,5.32
2023-02-15T10:52:07.742Z,4.75
2023-02-15T10:54:39.699Z,6.63
2023-02-15T10:57:11.245Z,4.90
2023-02-15T10:59:42.845Z,6.53
2023-02-15T11:02:14.407Z,5.72
2023-02-15T11:04:46.165Z,5.20
2023-02-15T11:07:17.769Z,5.85
2023-02-15T11:09:49.547Z,5.72
2023-02-15T11:12:21.063Z,5.22
2023-02-15T11:14:54.404Z,5.32
2023-02-15T11:17:25.906Z,5.97
2023-02-15T11:19:57.732Z,5.60
2023-02-15T11:22:29.209Z,5.38
2023-02-15T11:25:01.058Z,4.68
2023-02-15T11:27:34.010Z,6.03
2023-02-15T11:30:05.779Z,5.50
2023-02-15T11:32:37.314Z,5.13
2023-02-15T11:35:09.159Z,5.28
2023-02-15T11:37:40.657Z,4.60
2023-02-15T11:40:12.467Z,5.47
2023-02-15T11:42:43.946Z,5.35
2023-02-15T11:45:15.450Z,4.32
2023-02-15T11:47:46.930Z,4.50
2023-02-15T11:50:19.227Z,5.05
2023-02-15T11:52:50.791Z,4.88
2023-02-15T11:55:22.494Z,3.92
2023-02-15T11:57:54.046Z,3.80
2023-02-15T12:00:25.924Z,4.22
2023-02-15T12:02:57.513Z,4.68
2023-02-15T12:05:29.472Z,4.32
2023-02-15T12:08:01.021Z,4.72
2023-02-15T12:10:32.837Z,3.67
2023-02-15T12:13:04.325Z,3.38
2023-02-15T12:15:36.264Z,4.03
2023-02-15T12:18:08.303Z,4.90
2023-02-15T12:20:39.813Z,4.70
2023-02-15T12:23:11.291Z,3.92
2023-02-15T12:25:43.273Z,3.75
2023-02-15T12:28:15.065Z,3.90
2023-02-15T12:30:47.261Z,3.38
2023-02-15T12:33:18.734Z,3.40
2023-02-15T12:35:51.699Z,4.03
2023-02-15T12:40:55.036Z,3.38
2023-02-15T12:43:26.563Z,2.85
2023-02-15T12:45:58.486Z,4.20
2023-02-15T12:48:29.998Z,4.10
2023-02-15T12:51:01.525Z,3.63
2023-02-15T12:53:33.165Z,3.30
2023-02-15T12:56:04.786Z,3.78
2023-02-15T12:58:36.260Z,3.38
2023-02-15T13:01:08.079Z,3.28
2023-02-15T13:03:39.669Z,3.25
2023-02-15T13:06:11.537Z,3.10
2023-02-15T13:08:43.031Z,3.97
2023-02-15T13:11:15.574Z,2.88
2023-02-15T13:13:47.175Z,3.20
2023-02-15T13:16:18.685Z,3.35
2023-02-15T13:18:50.156Z,2.63
2023-02-15T13:21:21.689Z,3.45
2023-02-15T13:23:53.210Z,3.20
2023-02-15T13:26:25.125Z,2.80
2023-02-15T13:28:56.691Z,3.65
2023-02-15T13:31:29.046Z,3.20
2023-02-15T13:34:00.621Z,3.33
2023-02-15T13:36:32.708Z,4.00
2023-02-15T13:39:04.239Z,3.13
2023-02-15T13:41:36.814Z,2.83
2023-02-15T13:44:08.451Z,3.33
2023-02-15T13:46:41.258Z,3.30
2023-02-15T13:49:14.170Z,2.80
2023-02-15T13:51:45.958Z,3.67
2023-02-15T13:54:17.461Z,3.45
2023-02-15T13:56:49.318Z,3.10
2023-02-15T13:59:20.819Z,3.33
2023-02-15T14:01:52.722Z,3.45
2023-02-15T14:04:24.307Z,3.17
2023-02-15T14:06:56.635Z,3.33
2023-02-15T14:09:28.115Z,3.85
2023-02-15T14:12:00.018Z,3.53
2023-02-15T14:14:31.739Z,3.70
2023-02-15T14:17:07.320Z,3.63
2023-02-15T14:19:39.182Z,3.47
2023-02-15T14:22:12.670Z,3.03
2023-02-15T14:24:45.446Z,3.10
2023-02-15T14:27:16.972Z,3.53
2023-02-15T14:29:48.558Z,3.83
2023-02-15T14:32:20.281Z,3.15
2023-02-15T14:34:51.927Z,3.38
2023-02-15T14:37:23.599Z,3.10
2023-02-15T14:40:14.030Z,3.10
2023-02-15T14:42:45.513Z,3.05
2023-02-15T14:45:17.009Z,3.38
2023-02-15T14:47:48.486Z,3.20
2023-02-15T14:50:19.989Z,2.83
2023-02-15T14:52:51.499Z,2.80
2023-02-15T14:55:23.031Z,3.03
2023-02-15T14:57:54.545Z,3.20
2023-02-15T15:00:26.341Z,3.10
2023-02-15T15:02:57.856Z,2.80
2023-02-15T15:05:29.806Z,2.95
2023-02-15T15:08:01.316Z,2.58
2023-02-15T15:10:33.197Z,2.70
2023-02-15T15:13:04.702Z,2.03
2023-02-15T15:15:38.409Z,2.03
2023-02-15T15:18:11.029Z,2.38
2023-02-15T15:20:43.176Z,2.03
2023-02-15T15:23:14.667Z,2.40
2023-02-15T15:25:46.580Z,1.98
2023-02-15T15:28:18.087Z,1.73
2023-02-15T15:30:50.097Z,2.47
2023-02-15T15:33:21.703Z,1.87
2023-02-15T15:35:53.898Z,2.08
2023-02-15T15:38:25.479Z,1.52
2023-02-15T15:40:57.286Z,2.30
2023-02-15T15:43:31.333Z,1.90
2023-02-15T15:46:03.316Z,1.92
2023-02-15T15:48:35.589Z,2.33
2023-02-15T15:51:07.117Z,2.15
2023-02-15T15:53:38.634Z,1.88
2023-02-15T15:56:11.312Z,1.90
2023-02-15T15:58:42.804Z,1.83
2023-02-15T16:01:15.651Z,2.17
2023-02-15T16:06:18.746Z,2.10
2023-02-15T16:08:52.101Z,2.10
2023-02-15T16:11:23.704Z,2.90
2023-02-15T16:13:55.235Z,2.03
2023-02-15T16:16:29.068Z,2.67
2023-02-15T16:21:33.154Z,1.80
2023-02-15T16:24:04.632Z,2.20
2023-02-15T16:26:36.163Z,2.28
2023-02-15T16:29:07.682Z,1.98
2023-02-15T16:31:39.310Z,1.65
2023-02-15T16:34:11.030Z,2.70
2023-02-15T16:36:42.919Z,2.40
2023-02-15T16:39:14.459Z,2.38
2023-02-15T16:41:47.097Z,1.70
2023-02-15T16:44:18.622Z,2.35
2023-02-15T16:46:50.286Z,1.85
2023-02-15T16:49:21.866Z,2.15
2023-02-15T16:51:53.355Z,2.35
2023-02-15T16:54:24.906Z,2.40
2023-02-15T16:56:56.490Z,1.98
2023-02-15T16:59:28.302Z,2.33
2023-02-15T17:02:00.155Z,2.40
2023-02-15T17:04:32.514Z,1.92
2023-02-15T17:07:04.008Z,2.72
2023-02-15T17:09:35.554Z,2.20
2023-02-15T17:12:08.512Z,1.85
2023-02-15T17:14:43.098Z,2.22
2023-02-15T17:17:14.990Z,2.47
2023-02-15T17:19:46.513Z,2.13
2023-02-15T17:22:18.008Z,2.90
2023-02-15T17:24:49.514Z,2.45
2023-02-15T17:27:21.097Z,2.30
2023-02-15T17:29:53.017Z,2.72
2023-02-15T17:32:25.395Z,3.20
2023-02-15T17:34:56.982Z,2.30
2023-02-15T17:37:28.907Z,2.50
2023-02-15T17:40:00.553Z,2.70
2023-02-15T17:42:32.516Z,2.70
2023-02-15T17:45:04.104Z,3.05
2023-02-15T17:47:35.939Z,2.42
2023-02-15T17:50:07.426Z,3.40
2023-02-15T17:52:39.117Z,3.72
2023-02-15T17:55:29.483Z,2.95
2023-02-15T17:58:01.042Z,2.88
2023-02-15T18:00:51.240Z,2.58
2023-02-15T18:03:41.692Z,3.05
2023-02-15T18:06:32.389Z,3.10
2023-02-15T18:09:22.524Z,2.28
2023-02-15T18:11:54.409Z,2.83
2023-02-15T18:14:25.933Z,3.22
2023-02-15T18:16:57.927Z,3.05
2023-02-15T18:19:29.515Z,3.30
2023-02-15T18:22:01.272Z,2.78
2023-02-15T18:24:32.801Z,3.33
2023-02-15T18:27:04.669Z,3.28
2023-02-15T18:29:36.195Z,3.05
2023-02-15T18:32:08.173Z,3.13
2023-02-15T18:34:39.811Z,3.43
2023-02-15T18:37:11.679Z,3.00
2023-02-15T18:39:45.569Z,3.70
2023-02-15T18:42:17.205Z,3.47
2023-02-15T18:44:48.699Z,3.60
2023-02-15T18:47:20.235Z,4.47
2023-02-15T18:49:51.720Z,3.67
2023-02-15T18:52:23.419Z,3.95
2023-02-15T18:54:54.976Z,3.40
2023-02-15T18:57:26.499Z,3.30
2023-02-15T18:59:57.993Z,4.13
2023-02-15T19:02:29.901Z,4.07
2023-02-15T19:05:01.398Z,4.43
2023-02-15T19:07:33.232Z,3.38
2023-02-15T19:10:04.806Z,2.88
2023-02-15T19:12:36.364Z,3.47
2023-02-15T19:15:08.908Z,3.50
2023-02-15T19:17:40.395Z,3.97
2023-02-15T19:20:11.873Z,4.28
2023-02-15T19:22:43.704Z,3.20
2023-02-15T19:25:15.169Z,3.95
2023-02-15T19:27:46.780Z,3.55
2023-02-15T19:30:18.311Z,4.40
2023-02-15T19:32:50.110Z,4.07
2023-02-15T19:35:22.462Z,4.40
2023-02-15T19:37:53.969Z,5.03
2023-02-15T19:40:25.533Z,5.15
2023-02-15T19:42:57.204Z,4.38
2023-02-15T19:45:28.701Z,3.75
2023-02-15T19:48:00.181Z,4.43
2023-02-15T19:50:31.690Z,4.30
2023-02-15T19:53:03.444Z,3.80
2023-02-15T19:55:34.997Z,5.50
2023-02-15T19:58:06.512Z,5.28
2023-02-15T20:00:38.045Z,5.85
2023-02-15T20:03:09.782Z,5.53
2023-02-15T20:05:42.321Z,5.25
2023-02-15T20:08:13.803Z,4.95
2023-02-15T20:10:45.904Z,4.80
2023-02-15T20:13:17.434Z,4.43
2023-02-15T20:15:49.031Z,4.50
2023-02-15T20:18:22.590Z,5.80
2023-02-15T20:20:54.316Z,4.90
2023-02-15T20:23:26.526Z,5.07
2023-02-15T20:25:58.889Z,5.57
2023-02-15T20:28:30.487Z,4.82
2023-02-15T20:31:02.507Z,6.45
2023-02-15T20:33:34.603Z,5.75
2023-02-15T20:36:06.587Z,5.03
2023-02-15T20:38:38.063Z,5.30
2023-02-15T20:41:28.888Z,4.25
2023-02-15T20:44:00.428Z,4.53
2023-02-15T20:46:32.000Z,4.40
2023-02-15T20:49:03.601Z,4.95
2023-02-15T20:51:35.196Z,5.45
2023-02-15T20:54:06.734Z,5.55
2023-02-15T20:56:38.291Z,2.60
2023-02-15T20:59:09.981Z,4.55
2023-02-15T21:01:41.976Z,4.15
2023-02-15T21:04:13.565Z,5.30
2023-02-15T21:06:45.382Z,3.55
2023-02-15T21:09:16.860Z,4.28
2023-02-15T21:11:48.397Z,3.78
2023-02-15T21:14:20.014Z,4.35
2023-02-15T21:16:51.898Z,4.47
2023-02-15T21:19:23.398Z,5.60
2023-02-15T21:21:54.990Z,4.40
2023-02-15T21:24:26.506Z,3.33
2023-02-15T21:26:58.393Z,4.00
2023-02-15T21:29:30.000Z,3.73
2023-02-15T21:32:03.017Z,3.83
2023-02-15T21:34:34.550Z,3.38
2023-02-15T21:37:06.482Z,3.40
2023-02-15T21:39:37.989Z,2.00
2023-02-15T21:42:28.688Z,2.83
2023-02-15T21:45:18.844Z,3.42
2023-02-15T21:47:51.795Z,2.92
2023-02-15T21:50:41.996Z,3.10
2023-02-15T21:53:13.817Z,3.38
2023-02-15T21:55:45.316Z,3.77
2023-02-15T21:58:16.825Z,2.85
2023-02-15T22:00:48.391Z,3.22
2023-02-15T22:03:19.937Z,3.50
2023-02-15T22:05:51.508Z,4.75
2023-02-15T22:08:23.077Z,4.15
2023-02-15T22:10:54.574Z,3.97
2023-02-15T22:13:26.626Z,4.22
2023-02-15T22:15:58.193Z,3.42
2023-02-15T22:18:33.027Z,3.28
2023-02-15T22:21:05.288Z,2.30
2023-02-15T22:23:37.360Z,3.72
2023-02-15T22:26:08.857Z,3.77
2023-02-15T22:28:40.516Z,3.13
2023-02-15T22:31:12.111Z,3.28
2023-02-15T22:33:45.151Z,3.10
2023-02-15T22:36:16.635Z,4.35
2023-02-15T22:38:48.376Z,4.57
2023-02-15T22:41:20.219Z,3.40
2023-02-15T22:43:52.048Z,2.63
2023-02-15T22:46:23.734Z,3.93
2023-02-15T22:48:55.608Z,3.17
2023-02-15T22:51:27.116Z,2.33
2023-02-15T22:53:58.744Z,2.78
2023-02-15T22:56:30.215Z,3.65
2023-02-15T22:59:02.134Z,2.58
2023-02-15T23:01:33.674Z,2.00
2023-02-15T23:04:05.603Z,2.13
2023-02-15T23:06:37.102Z,2.40
2023-02-15T23:09:08.949Z,3.45
2023-02-15T23:11:40.457Z,3.27
2023-02-15T23:14:12.285Z,2.75
2023-02-15T23:16:43.807Z,3.90
2023-02-15T23:19:15.375Z,3.22
2023-02-15T23:21:46.895Z,2.63
2023-02-15T23:24:18.554Z,2.78
2023-02-15T23:26:50.046Z,2.65
2023-02-15T23:29:21.551Z,2.72
2023-02-15T23:31:53.229Z,2.53
2023-02-15T23:34:25.198Z,2.97
2023-02-15T23:36:56.713Z,3.03
2023-02-15T23:39:47.561Z,4.07
2023-02-15T23:42:19.131Z,2.90
2023-02-15T23:44:51.120Z,3.03
2023-02-15T23:47:42.941Z,2.53
2023-02-15T23:50:14.434Z,3.63
2023-02-15T23:52:46.323Z,2.40
2023-02-15T23:55:17.806Z,2.80
2023-02-15T23:57:49.704Z,2.55
